sensor_id;sensor_type;location;lat;lon;timestamp;P1;durP1;ratioP1;P2;durP2;ratioP2
62997;SDS011;55949;52.590;7.330;2023-03-02T00:00:03;93.30;;;33.80;;
62997;SDS011;55949;52.590;7.330;2023-03-02T00:01:13;89.82;;;32.72;;
62997;SDS011;55949;52.590;7.330;2023-03-02T00:02:15;84.38;;;31.55;;
62997;SDS011;55949;52.590;7.330;2023-03-02T00:03:21;83.15;;;30.90;;
62997;SDS011;55949;52.590;7.330;2023-03-02T00:05:24;82.05;;;32.67;;
62997;SDS011;55949;52.590;7.330;2023-03-02T00:06:28;80.13;;;30.17;;
62997;SDS011;55949;52.590;7.330;2023-03-02T00:07:31;76.45;;;29.83;;
62997;SDS011;55949;52.590;7.330;2023-03-02T00:08:33;91.07;;;32.45;;
62997;SDS011;55949;52.590;7.330;2023-03-02T00:09:35;87.45;;;31.92;;
62997;SDS011;55949;52.590;7.330;2023-03-02T00:10:37;82.28;;;30.10;;
62997;SDS011;55949;52.590;7.330;2023-03-02T00:11:38;71.22;;;27.73;;
62997;SDS011;55949;52.590;7.330;2023-03-02T00:12:38;83.25;;;31.33;;
62997;SDS011;55949;52.590;7.330;2023-03-02T00:13:39;86.50;;;30.77;;
62997;SDS011;55949;52.590;7.330;2023-03-02T00:14:42;87.85;;;32.65;;
62997;SDS011;55949;52.590;7.330;2023-03-02T00:15:42;91.15;;;31.63;;
62997;SDS011;55949;52.590;7.330;2023-03-02T00:16:43;84.75;;;31.67;;
62997;SDS011;55949;52.590;7.330;2023-03-02T00:17:44;99.35;;;33.78;;
62997;SDS011;55949;52.590;7.330;2023-03-02T00:18:44;88.30;;;34.63;;
62997;SDS011;55949;52.590;7.330;2023-03-02T00:19:45;82.25;;;30.10;;
62997;SDS011;55949;52.590;7.330;2023-03-02T00:20:46;86.10;;;31.88;;
62997;SDS011;55949;52.590;7.330;2023-03-02T00:21:46;90.20;;;29.85;;
62997;SDS011;55949;52.590;7.330;2023-03-02T00:22:47;71.38;;;28.58;;
62997;SDS011;55949;52.590;7.330;2023-03-02T00:23:48;89.38;;;31.90;;
62997;SDS011;55949;52.590;7.330;2023-03-02T00:24:49;92.18;;;33.30;;
62997;SDS011;55949;52.590;7.330;2023-03-02T00:25:49;85.55;;;29.60;;
62997;SDS011;55949;52.590;7.330;2023-03-02T00:26:50;92.18;;;32.55;;
62997;SDS011;55949;52.590;7.330;2023-03-02T00:27:51;88.63;;;31.58;;
62997;SDS011;55949;52.590;7.330;2023-03-02T00:28:52;85.60;;;31.67;;
62997;SDS011;55949;52.590;7.330;2023-03-02T00:29:53;85.72;;;32.03;;
62997;SDS011;55949;52.590;7.330;2023-03-02T00:30:53;87.43;;;31.83;;
62997;SDS011;55949;52.590;7.330;2023-03-02T00:31:54;92.28;;;33.25;;
62997;SDS011;55949;52.590;7.330;2023-03-02T00:32:55;92.45;;;32.17;;
62997;SDS011;55949;52.590;7.330;2023-03-02T00:33:57;89.25;;;30.80;;
62997;SDS011;55949;52.590;7.330;2023-03-02T00:34:58;83.90;;;32.20;;
62997;SDS011;55949;52.590;7.330;2023-03-02T00:35:58;92.43;;;32.63;;
62997;SDS011;55949;52.590;7.330;2023-03-02T00:36:59;91.25;;;31.80;;
62997;SDS011;55949;52.590;7.330;2023-03-02T00:38:00;84.97;;;31.30;;
62997;SDS011;55949;52.590;7.330;2023-03-02T00:39:01;84.68;;;31.33;;
62997;SDS011;55949;52.590;7.330;2023-03-02T00:40:04;88.45;;;30.75;;
62997;SDS011;55949;52.590;7.330;2023-03-02T00:41:06;85.93;;;31.85;;
62997;SDS011;55949;52.590;7.330;2023-03-02T00:42:07;83.68;;;31.90;;
62997;SDS011;55949;52.590;7.330;2023-03-02T00:43:08;79.00;;;30.70;;
62997;SDS011;55949;52.590;7.330;2023-03-02T00:44:08;81.40;;;31.23;;
62997;SDS011;55949;52.590;7.330;2023-03-02T00:45:16;85.40;;;32.78;;
62997;SDS011;55949;52.590;7.330;2023-03-02T00:46:19;94.35;;;32.63;;
62997;SDS011;55949;52.590;7.330;2023-03-02T00:47:21;80.68;;;31.55;;
62997;SDS011;55949;52.590;7.330;2023-03-02T00:48:21;77.00;;;29.02;;
62997;SDS011;55949;52.590;7.330;2023-03-02T00:49:22;95.03;;;30.10;;
62997;SDS011;55949;52.590;7.330;2023-03-02T00:50:23;77.13;;;29.98;;
62997;SDS011;55949;52.590;7.330;2023-03-02T00:51:24;65.75;;;26.05;;
62997;SDS011;55949;52.590;7.330;2023-03-02T00:52:24;81.72;;;29.35;;
62997;SDS011;55949;52.590;7.330;2023-03-02T00:53:25;89.03;;;30.45;;
62997;SDS011;55949;52.590;7.330;2023-03-02T00:54:26;76.22;;;29.85;;
62997;SDS011;55949;52.590;7.330;2023-03-02T00:55:26;68.18;;;24.98;;
62997;SDS011;55949;52.590;7.330;2023-03-02T00:56:27;75.03;;;26.08;;
62997;SDS011;55949;52.590;7.330;2023-03-02T00:57:28;73.13;;;25.17;;
62997;SDS011;55949;52.590;7.330;2023-03-02T00:58:29;79.85;;;28.73;;
62997;SDS011;55949;52.590;7.330;2023-03-02T00:59:30;73.65;;;28.38;;
62997;SDS011;55949;52.590;7.330;2023-03-02T01:00:31;71.03;;;26.63;;
62997;SDS011;55949;52.590;7.330;2023-03-02T01:01:33;71.13;;;26.40;;
62997;SDS011;55949;52.590;7.330;2023-03-02T01:02:33;71.07;;;26.83;;
62997;SDS011;55949;52.590;7.330;2023-03-02T01:03:34;74.20;;;28.73;;
62997;SDS011;55949;52.590;7.330;2023-03-02T01:04:37;78.22;;;28.63;;
62997;SDS011;55949;52.590;7.330;2023-03-02T01:05:39;73.45;;;28.90;;
62997;SDS011;55949;52.590;7.330;2023-03-02T01:06:40;57.35;;;24.52;;
62997;SDS011;55949;52.590;7.330;2023-03-02T01:07:46;70.65;;;26.50;;
62997;SDS011;55949;52.590;7.330;2023-03-02T01:08:47;77.80;;;27.90;;
62997;SDS011;55949;52.590;7.330;2023-03-02T01:09:48;70.57;;;27.92;;
62997;SDS011;55949;52.590;7.330;2023-03-02T01:10:49;72.57;;;27.10;;
62997;SDS011;55949;52.590;7.330;2023-03-02T01:11:51;67.97;;;24.35;;
62997;SDS011;55949;52.590;7.330;2023-03-02T01:12:52;72.15;;;26.95;;
62997;SDS011;55949;52.590;7.330;2023-03-02T01:13:52;74.40;;;26.70;;
62997;SDS011;55949;52.590;7.330;2023-03-02T01:14:53;73.63;;;25.63;;
62997;SDS011;55949;52.590;7.330;2023-03-02T01:16:01;74.10;;;27.48;;
62997;SDS011;55949;52.590;7.330;2023-03-02T01:17:03;69.78;;;25.63;;
62997;SDS011;55949;52.590;7.330;2023-03-02T01:18:06;67.28;;;24.45;;
62997;SDS011;55949;52.590;7.330;2023-03-02T01:19:07;75.93;;;28.15;;
62997;SDS011;55949;52.590;7.330;2023-03-02T01:20:08;77.65;;;28.75;;
62997;SDS011;55949;52.590;7.330;2023-03-02T01:21:11;82.95;;;29.65;;
62997;SDS011;55949;52.590;7.330;2023-03-02T01:22:13;82.85;;;29.75;;
62997;SDS011;55949;52.590;7.330;2023-03-02T01:23:14;71.70;;;26.35;;
62997;SDS011;55949;52.590;7.330;2023-03-02T01:24:14;89.00;;;29.58;;
62997;SDS011;55949;52.590;7.330;2023-03-02T01:25:16;81.55;;;29.63;;
62997;SDS011;55949;52.590;7.330;2023-03-02T01:26:16;85.10;;;29.98;;
62997;SDS011;55949;52.590;7.330;2023-03-02T01:27:20;83.18;;;29.65;;
62997;SDS011;55949;52.590;7.330;2023-03-02T01:28:21;77.65;;;28.90;;
62997;SDS011;55949;52.590;7.330;2023-03-02T01:29:22;83.28;;;28.65;;
62997;SDS011;55949;52.590;7.330;2023-03-02T01:30:23;74.05;;;28.67;;
62997;SDS011;55949;52.590;7.330;2023-03-02T01:31:26;78.05;;;30.40;;
62997;SDS011;55949;52.590;7.330;2023-03-02T01:32:27;72.97;;;27.17;;
62997;SDS011;55949;52.590;7.330;2023-03-02T01:33:28;75.13;;;27.02;;
62997;SDS011;55949;52.590;7.330;2023-03-02T01:34:29;63.03;;;25.33;;
62997;SDS011;55949;52.590;7.330;2023-03-02T01:35:30;77.63;;;27.25;;
62997;SDS011;55949;52.590;7.330;2023-03-02T01:36:31;78.30;;;27.63;;
62997;SDS011;55949;52.590;7.330;2023-03-02T01:37:31;68.32;;;25.02;;
62997;SDS011;55949;52.590;7.330;2023-03-02T01:38:32;76.10;;;26.05;;
62997;SDS011;55949;52.590;7.330;2023-03-02T01:39:33;74.50;;;27.42;;
62997;SDS011;55949;52.590;7.330;2023-03-02T01:40:33;69.47;;;25.67;;
62997;SDS011;55949;52.590;7.330;2023-03-02T01:41:34;74.57;;;26.92;;
62997;SDS011;55949;52.590;7.330;2023-03-02T01:42:38;77.30;;;28.10;;
62997;SDS011;55949;52.590;7.330;2023-03-02T01:43:44;77.05;;;27.70;;
62997;SDS011;55949;52.590;7.330;2023-03-02T01:44:47;78.18;;;25.90;;
62997;SDS011;55949;52.590;7.330;2023-03-02T01:45:53;77.72;;;26.65;;
62997;SDS011;55949;52.590;7.330;2023-03-02T01:46:54;76.47;;;28.33;;
62997;SDS011;55949;52.590;7.330;2023-03-02T01:47:55;75.90;;;27.23;;
62997;SDS011;55949;52.590;7.330;2023-03-02T01:49:06;72.63;;;27.48;;
62997;SDS011;55949;52.590;7.330;2023-03-02T01:50:18;77.43;;;28.10;;
62997;SDS011;55949;52.590;7.330;2023-03-02T01:51:23;80.57;;;28.27;;
62997;SDS011;55949;52.590;7.330;2023-03-02T01:52:26;73.55;;;27.27;;
62997;SDS011;55949;52.590;7.330;2023-03-02T01:53:31;68.20;;;25.73;;
62997;SDS011;55949;52.590;7.330;2023-03-02T01:54:33;67.75;;;23.92;;
62997;SDS011;55949;52.590;7.330;2023-03-02T01:55:34;79.88;;;28.13;;
62997;SDS011;55949;52.590;7.330;2023-03-02T01:56:38;77.63;;;27.27;;
62997;SDS011;55949;52.590;7.330;2023-03-02T01:57:41;81.60;;;29.65;;
62997;SDS011;55949;52.590;7.330;2023-03-02T01:58:45;74.20;;;27.30;;
62997;SDS011;55949;52.590;7.330;2023-03-02T01:59:49;70.25;;;25.52;;
62997;SDS011;55949;52.590;7.330;2023-03-02T02:00:55;77.68;;;26.10;;
62997;SDS011;55949;52.590;7.330;2023-03-02T02:01:57;67.55;;;24.65;;
62997;SDS011;55949;52.590;7.330;2023-03-02T02:03:04;73.80;;;28.73;;
62997;SDS011;55949;52.590;7.330;2023-03-02T02:04:09;73.82;;;26.33;;
62997;SDS011;55949;52.590;7.330;2023-03-02T02:05:12;80.05;;;26.52;;
62997;SDS011;55949;52.590;7.330;2023-03-02T02:06:22;79.05;;;27.13;;
62997;SDS011;55949;52.590;7.330;2023-03-02T02:07:23;82.70;;;28.77;;
62997;SDS011;55949;52.590;7.330;2023-03-02T02:08:24;83.55;;;29.27;;
62997;SDS011;55949;52.590;7.330;2023-03-02T02:09:25;72.75;;;26.83;;
62997;SDS011;55949;52.590;7.330;2023-03-02T02:10:29;61.05;;;23.20;;
62997;SDS011;55949;52.590;7.330;2023-03-02T02:11:31;68.55;;;24.58;;
62997;SDS011;55949;52.590;7.330;2023-03-02T02:12:32;83.63;;;28.58;;
62997;SDS011;55949;52.590;7.330;2023-03-02T02:13:32;72.00;;;25.92;;
62997;SDS011;55949;52.590;7.330;2023-03-02T02:14:33;58.70;;;22.35;;
62997;SDS011;55949;52.590;7.330;2023-03-02T02:15:34;78.07;;;23.98;;
62997;SDS011;55949;52.590;7.330;2023-03-02T02:16:35;72.90;;;26.02;;
62997;SDS011;55949;52.590;7.330;2023-03-02T02:17:37;75.35;;;26.95;;
62997;SDS011;55949;52.590;7.330;2023-03-02T02:18:38;68.40;;;23.33;;
62997;SDS011;55949;52.590;7.330;2023-03-02T02:20:59;72.00;;;24.50;;
62997;SDS011;55949;52.590;7.330;2023-03-02T02:22:00;72.15;;;25.27;;
62997;SDS011;55949;52.590;7.330;2023-03-02T02:23:09;73.88;;;26.17;;
62997;SDS011;55949;52.590;7.330;2023-03-02T02:24:38;72.72;;;25.67;;
62997;SDS011;55949;52.590;7.330;2023-03-02T02:26:45;79.75;;;26.65;;
62997;SDS011;55949;52.590;7.330;2023-03-02T02:27:49;65.90;;;22.98;;
62997;SDS011;55949;52.590;7.330;2023-03-02T02:28:52;67.68;;;25.23;;
62997;SDS011;55949;52.590;7.330;2023-03-02T02:29:56;73.35;;;25.50;;
62997;SDS011;55949;52.590;7.330;2023-03-02T02:32:26;81.80;;;26.65;;
62997;SDS011;55949;52.590;7.330;2023-03-02T02:33:30;78.00;;;27.88;;
62997;SDS011;55949;52.590;7.330;2023-03-02T02:34:34;84.05;;;29.15;;
62997;SDS011;55949;52.590;7.330;2023-03-02T02:35:40;79.47;;;28.20;;
62997;SDS011;55949;52.590;7.330;2023-03-02T02:36:44;78.78;;;26.52;;
62997;SDS011;55949;52.590;7.330;2023-03-02T02:37:48;78.13;;;27.52;;
62997;SDS011;55949;52.590;7.330;2023-03-02T02:38:52;87.28;;;29.25;;
62997;SDS011;55949;52.590;7.330;2023-03-02T02:39:55;89.13;;;28.77;;
62997;SDS011;55949;52.590;7.330;2023-03-02T02:40:57;85.97;;;27.98;;
62997;SDS011;55949;52.590;7.330;2023-03-02T02:42:03;91.82;;;29.88;;
62997;SDS011;55949;52.590;7.330;2023-03-02T02:43:08;81.50;;;28.60;;
62997;SDS011;55949;52.590;7.330;2023-03-02T02:44:13;85.00;;;27.02;;
62997;SDS011;55949;52.590;7.330;2023-03-02T02:46:20;85.68;;;27.15;;
62997;SDS011;55949;52.590;7.330;2023-03-02T02:47:21;82.00;;;28.73;;
62997;SDS011;55949;52.590;7.330;2023-03-02T02:48:23;82.78;;;28.77;;
62997;SDS011;55949;52.590;7.330;2023-03-02T02:50:34;70.82;;;25.60;;
62997;SDS011;55949;52.590;7.330;2023-03-02T02:51:36;85.78;;;28.48;;
62997;SDS011;55949;52.590;7.330;2023-03-02T02:52:37;89.05;;;28.85;;
62997;SDS011;55949;52.590;7.330;2023-03-02T02:53:42;90.15;;;28.95;;
62997;SDS011;55949;52.590;7.330;2023-03-02T02:54:48;78.03;;;27.42;;
62997;SDS011;55949;52.590;7.330;2023-03-02T02:55:51;91.45;;;29.52;;
62997;SDS011;55949;52.590;7.330;2023-03-02T02:56:54;79.55;;;26.02;;
62997;SDS011;55949;52.590;7.330;2023-03-02T02:57:56;80.97;;;27.25;;
62997;SDS011;55949;52.590;7.330;2023-03-02T02:59:04;87.15;;;28.83;;
62997;SDS011;55949;52.590;7.330;2023-03-02T03:00:14;72.38;;;24.63;;
62997;SDS011;55949;52.590;7.330;2023-03-02T03:01:19;78.30;;;25.73;;
62997;SDS011;55949;52.590;7.330;2023-03-02T03:02:26;74.38;;;25.70;;
62997;SDS011;55949;52.590;7.330;2023-03-02T03:04:31;84.18;;;27.90;;
62997;SDS011;55949;52.590;7.330;2023-03-02T03:05:31;75.28;;;25.30;;
62997;SDS011;55949;52.590;7.330;2023-03-02T03:06:33;81.30;;;27.00;;
62997;SDS011;55949;52.590;7.330;2023-03-02T03:07:41;87.50;;;27.40;;
62997;SDS011;55949;52.590;7.330;2023-03-02T03:10:07;82.65;;;26.98;;
62997;SDS011;55949;52.590;7.330;2023-03-02T03:11:26;81.95;;;25.90;;
62997;SDS011;55949;52.590;7.330;2023-03-02T03:12:28;81.10;;;26.15;;
62997;SDS011;55949;52.590;7.330;2023-03-02T03:13:32;69.45;;;24.85;;
62997;SDS011;55949;52.590;7.330;2023-03-02T03:14:34;81.60;;;27.73;;
62997;SDS011;55949;52.590;7.330;2023-03-02T03:15:38;87.10;;;30.58;;
62997;SDS011;55949;52.590;7.330;2023-03-02T03:16:39;87.75;;;28.13;;
62997;SDS011;55949;52.590;7.330;2023-03-02T03:18:02;85.80;;;28.45;;
62997;SDS011;55949;52.590;7.330;2023-03-02T03:19:14;86.05;;;26.48;;
62997;SDS011;55949;52.590;7.330;2023-03-02T03:20:21;70.80;;;24.02;;
62997;SDS011;55949;52.590;7.330;2023-03-02T03:21:23;84.07;;;26.00;;
62997;SDS011;55949;52.590;7.330;2023-03-02T03:22:24;82.88;;;27.98;;
62997;SDS011;55949;52.590;7.330;2023-03-02T03:23:25;79.30;;;29.02;;
62997;SDS011;55949;52.590;7.330;2023-03-02T03:24:26;74.75;;;27.67;;
62997;SDS011;55949;52.590;7.330;2023-03-02T03:25:28;78.30;;;28.00;;
62997;SDS011;55949;52.590;7.330;2023-03-02T03:26:31;74.90;;;26.27;;
62997;SDS011;55949;52.590;7.330;2023-03-02T03:27:31;80.38;;;27.88;;
62997;SDS011;55949;52.590;7.330;2023-03-02T03:28:32;85.72;;;27.15;;
62997;SDS011;55949;52.590;7.330;2023-03-02T03:29:35;81.32;;;27.55;;
62997;SDS011;55949;52.590;7.330;2023-03-02T03:30:37;83.25;;;28.55;;
62997;SDS011;55949;52.590;7.330;2023-03-02T03:31:38;84.93;;;28.40;;
62997;SDS011;55949;52.590;7.330;2023-03-02T03:32:39;79.13;;;28.00;;
62997;SDS011;55949;52.590;7.330;2023-03-02T03:33:40;73.13;;;25.98;;
62997;SDS011;55949;52.590;7.330;2023-03-02T03:34:41;77.72;;;29.10;;
62997;SDS011;55949;52.590;7.330;2023-03-02T03:35:42;75.30;;;28.20;;
62997;SDS011;55949;52.590;7.330;2023-03-02T03:36:42;74.25;;;25.35;;
62997;SDS011;55949;52.590;7.330;2023-03-02T03:37:43;75.72;;;25.45;;
62997;SDS011;55949;52.590;7.330;2023-03-02T03:38:44;78.65;;;27.67;;
62997;SDS011;55949;52.590;7.330;2023-03-02T03:39:45;75.90;;;29.08;;
62997;SDS011;55949;52.590;7.330;2023-03-02T03:40:46;88.90;;;29.58;;
62997;SDS011;55949;52.590;7.330;2023-03-02T03:41:47;89.40;;;30.40;;
62997;SDS011;55949;52.590;7.330;2023-03-02T03:42:47;94.22;;;30.52;;
62997;SDS011;55949;52.590;7.330;2023-03-02T03:43:48;97.00;;;30.77;;
62997;SDS011;55949;52.590;7.330;2023-03-02T03:44:49;88.43;;;30.23;;
62997;SDS011;55949;52.590;7.330;2023-03-02T03:45:50;81.13;;;29.00;;
62997;SDS011;55949;52.590;7.330;2023-03-02T03:46:51;93.25;;;30.42;;
62997;SDS011;55949;52.590;7.330;2023-03-02T03:47:51;91.20;;;30.60;;
62997;SDS011;55949;52.590;7.330;2023-03-02T03:48:52;83.00;;;28.90;;
62997;SDS011;55949;52.590;7.330;2023-03-02T03:49:53;91.50;;;30.20;;
62997;SDS011;55949;52.590;7.330;2023-03-02T03:50:54;93.28;;;29.17;;
62997;SDS011;55949;52.590;7.330;2023-03-02T03:51:55;104.70;;;30.65;;
62997;SDS011;55949;52.590;7.330;2023-03-02T03:52:55;87.53;;;31.25;;
62997;SDS011;55949;52.590;7.330;2023-03-02T03:53:57;81.40;;;29.05;;
62997;SDS011;55949;52.590;7.330;2023-03-02T03:55:01;89.55;;;29.95;;
62997;SDS011;55949;52.590;7.330;2023-03-02T03:56:02;88.95;;;30.35;;
62997;SDS011;55949;52.590;7.330;2023-03-02T03:57:03;83.22;;;28.25;;
62997;SDS011;55949;52.590;7.330;2023-03-02T03:58:04;79.22;;;28.20;;
62997;SDS011;55949;52.590;7.330;2023-03-02T03:59:05;82.80;;;27.65;;
62997;SDS011;55949;52.590;7.330;2023-03-02T04:00:08;73.80;;;26.05;;
62997;SDS011;55949;52.590;7.330;2023-03-02T04:01:13;77.90;;;27.40;;
62997;SDS011;55949;52.590;7.330;2023-03-02T04:02:14;78.03;;;28.63;;
62997;SDS011;55949;52.590;7.330;2023-03-02T04:03:15;80.65;;;28.13;;
62997;SDS011;55949;52.590;7.330;2023-03-02T04:04:17;83.40;;;27.70;;
62997;SDS011;55949;52.590;7.330;2023-03-02T04:05:24;69.70;;;25.25;;
62997;SDS011;55949;52.590;7.330;2023-03-02T04:06:24;76.47;;;24.40;;
62997;SDS011;55949;52.590;7.330;2023-03-02T04:07:25;77.85;;;25.50;;
62997;SDS011;55949;52.590;7.330;2023-03-02T04:08:26;58.97;;;22.98;;
62997;SDS011;55949;52.590;7.330;2023-03-02T04:09:26;64.78;;;24.42;;
62997;SDS011;55949;52.590;7.330;2023-03-02T04:10:28;69.20;;;24.88;;
62997;SDS011;55949;52.590;7.330;2023-03-02T04:11:30;70.95;;;23.90;;
62997;SDS011;55949;52.590;7.330;2023-03-02T04:12:35;73.13;;;26.27;;
62997;SDS011;55949;52.590;7.330;2023-03-02T04:13:37;54.22;;;20.73;;
62997;SDS011;55949;52.590;7.330;2023-03-02T04:14:38;72.05;;;26.20;;
62997;SDS011;55949;52.590;7.330;2023-03-02T04:15:39;76.80;;;27.42;;
62997;SDS011;55949;52.590;7.330;2023-03-02T04:16:41;82.70;;;28.25;;
62997;SDS011;55949;52.590;7.330;2023-03-02T04:17:42;76.85;;;28.10;;
62997;SDS011;55949;52.590;7.330;2023-03-02T04:18:44;85.10;;;28.52;;
62997;SDS011;55949;52.590;7.330;2023-03-02T04:19:44;80.88;;;27.92;;
62997;SDS011;55949;52.590;7.330;2023-03-02T04:20:45;88.28;;;29.13;;
62997;SDS011;55949;52.590;7.330;2023-03-02T04:21:47;86.82;;;28.00;;
62997;SDS011;55949;52.590;7.330;2023-03-02T04:22:50;90.30;;;29.63;;
62997;SDS011;55949;52.590;7.330;2023-03-02T04:23:52;77.25;;;26.50;;
62997;SDS011;55949;52.590;7.330;2023-03-02T04:24:53;74.90;;;27.10;;
62997;SDS011;55949;52.590;7.330;2023-03-02T04:25:54;73.82;;;27.58;;
62997;SDS011;55949;52.590;7.330;2023-03-02T04:26:55;77.40;;;26.80;;
62997;SDS011;55949;52.590;7.330;2023-03-02T04:27:55;71.80;;;26.80;;
62997;SDS011;55949;52.590;7.330;2023-03-02T04:28:56;74.43;;;27.80;;
62997;SDS011;55949;52.590;7.330;2023-03-02T04:29:57;73.30;;;28.17;;
62997;SDS011;55949;52.590;7.330;2023-03-02T04:30:58;75.78;;;26.83;;
62997;SDS011;55949;52.590;7.330;2023-03-02T04:31:58;83.20;;;29.23;;
62997;SDS011;55949;52.590;7.330;2023-03-02T04:32:59;79.78;;;29.00;;
62997;SDS011;55949;52.590;7.330;2023-03-02T04:34:00;80.60;;;28.90;;
62997;SDS011;55949;52.590;7.330;2023-03-02T04:35:04;72.97;;;26.85;;
62997;SDS011;55949;52.590;7.330;2023-03-02T04:36:05;78.32;;;29.67;;
62997;SDS011;55949;52.590;7.330;2023-03-02T04:37:06;71.18;;;27.67;;
62997;SDS011;55949;52.590;7.330;2023-03-02T04:38:07;71.57;;;27.88;;
62997;SDS011;55949;52.590;7.330;2023-03-02T04:39:09;76.00;;;28.77;;
62997;SDS011;55949;52.590;7.330;2023-03-02T04:40:11;64.03;;;25.35;;
62997;SDS011;55949;52.590;7.330;2023-03-02T04:41:13;72.82;;;28.20;;
62997;SDS011;55949;52.590;7.330;2023-03-02T04:42:14;70.25;;;25.80;;
62997;SDS011;55949;52.590;7.330;2023-03-02T04:43:14;74.05;;;27.77;;
62997;SDS011;55949;52.590;7.330;2023-03-02T04:44:15;72.80;;;26.38;;
62997;SDS011;55949;52.590;7.330;2023-03-02T04:45:17;74.38;;;26.75;;
62997;SDS011;55949;52.590;7.330;2023-03-02T04:46:19;75.80;;;28.05;;
62997;SDS011;55949;52.590;7.330;2023-03-02T04:47:22;76.80;;;27.95;;
62997;SDS011;55949;52.590;7.330;2023-03-02T04:48:23;70.05;;;27.48;;
62997;SDS011;55949;52.590;7.330;2023-03-02T04:49:24;84.90;;;27.85;;
62997;SDS011;55949;52.590;7.330;2023-03-02T04:50:25;70.68;;;28.50;;
62997;SDS011;55949;52.590;7.330;2023-03-02T04:51:27;75.82;;;26.67;;
62997;SDS011;55949;52.590;7.330;2023-03-02T04:52:33;67.65;;;26.10;;
62997;SDS011;55949;52.590;7.330;2023-03-02T04:53:33;68.68;;;25.80;;
62997;SDS011;55949;52.590;7.330;2023-03-02T04:54:34;62.50;;;25.27;;
62997;SDS011;55949;52.590;7.330;2023-03-02T04:55:35;70.78;;;25.73;;
62997;SDS011;55949;52.590;7.330;2023-03-02T04:56:35;70.45;;;24.48;;
62997;SDS011;55949;52.590;7.330;2023-03-02T04:57:36;64.85;;;24.80;;
62997;SDS011;55949;52.590;7.330;2023-03-02T04:58:37;73.22;;;26.30;;
62997;SDS011;55949;52.590;7.330;2023-03-02T04:59:38;65.25;;;25.30;;
62997;SDS011;55949;52.590;7.330;2023-03-02T05:00:38;69.88;;;24.77;;
62997;SDS011;55949;52.590;7.330;2023-03-02T05:01:39;75.78;;;25.52;;
62997;SDS011;55949;52.590;7.330;2023-03-02T05:02:40;69.05;;;24.65;;
62997;SDS011;55949;52.590;7.330;2023-03-02T05:03:41;75.00;;;27.60;;
62997;SDS011;55949;52.590;7.330;2023-03-02T05:04:42;76.53;;;25.85;;
62997;SDS011;55949;52.590;7.330;2023-03-02T05:05:42;67.72;;;24.38;;
62997;SDS011;55949;52.590;7.330;2023-03-02T05:06:43;74.88;;;24.88;;
62997;SDS011;55949;52.590;7.330;2023-03-02T05:07:44;69.88;;;26.83;;
62997;SDS011;55949;52.590;7.330;2023-03-02T05:08:45;68.38;;;26.48;;
62997;SDS011;55949;52.590;7.330;2023-03-02T05:09:45;70.72;;;25.95;;
62997;SDS011;55949;52.590;7.330;2023-03-02T05:10:46;71.32;;;27.25;;
62997;SDS011;55949;52.590;7.330;2023-03-02T05:11:47;72.00;;;26.40;;
62997;SDS011;55949;52.590;7.330;2023-03-02T05:12:48;69.72;;;27.75;;
62997;SDS011;55949;52.590;7.330;2023-03-02T05:14:02;68.00;;;26.27;;
62997;SDS011;55949;52.590;7.330;2023-03-02T05:15:05;74.10;;;26.02;;
62997;SDS011;55949;52.590;7.330;2023-03-02T05:16:06;71.68;;;27.13;;
62997;SDS011;55949;52.590;7.330;2023-03-02T05:17:06;79.03;;;26.83;;
62997;SDS011;55949;52.590;7.330;2023-03-02T05:18:08;73.20;;;26.52;;
62997;SDS011;55949;52.590;7.330;2023-03-02T05:19:11;62.28;;;23.95;;
62997;SDS011;55949;52.590;7.330;2023-03-02T05:20:12;75.07;;;27.48;;
62997;SDS011;55949;52.590;7.330;2023-03-02T05:21:13;71.97;;;26.80;;
62997;SDS011;55949;52.590;7.330;2023-03-02T05:22:15;65.82;;;27.58;;
62997;SDS011;55949;52.590;7.330;2023-03-02T05:23:16;74.20;;;28.30;;
62997;SDS011;55949;52.590;7.330;2023-03-02T05:24:23;72.38;;;26.90;;
62997;SDS011;55949;52.590;7.330;2023-03-02T05:25:25;66.70;;;25.90;;
62997;SDS011;55949;52.590;7.330;2023-03-02T05:26:27;66.15;;;25.10;;
62997;SDS011;55949;52.590;7.330;2023-03-02T05:27:27;71.40;;;26.30;;
62997;SDS011;55949;52.590;7.330;2023-03-02T05:28:28;69.10;;;26.92;;
62997;SDS011;55949;52.590;7.330;2023-03-02T05:29:29;69.80;;;25.73;;
62997;SDS011;55949;52.590;7.330;2023-03-02T05:30:30;72.68;;;25.90;;
62997;SDS011;55949;52.590;7.330;2023-03-02T05:31:37;65.85;;;25.05;;
62997;SDS011;55949;52.590;7.330;2023-03-02T05:32:40;70.95;;;26.58;;
62997;SDS011;55949;52.590;7.330;2023-03-02T05:33:40;70.50;;;26.40;;
62997;SDS011;55949;52.590;7.330;2023-03-02T05:34:41;67.25;;;24.95;;
62997;SDS011;55949;52.590;7.330;2023-03-02T05:35:42;71.07;;;26.40;;
62997;SDS011;55949;52.590;7.330;2023-03-02T05:36:43;68.63;;;24.88;;
62997;SDS011;55949;52.590;7.330;2023-03-02T05:37:44;69.65;;;24.65;;
62997;SDS011;55949;52.590;7.330;2023-03-02T05:38:45;67.28;;;25.15;;
62997;SDS011;55949;52.590;7.330;2023-03-02T05:39:46;67.32;;;26.40;;
62997;SDS011;55949;52.590;7.330;2023-03-02T05:40:47;69.45;;;27.17;;
62997;SDS011;55949;52.590;7.330;2023-03-02T05:41:48;68.68;;;25.40;;
62997;SDS011;55949;52.590;7.330;2023-03-02T05:42:48;67.68;;;24.85;;
62997;SDS011;55949;52.590;7.330;2023-03-02T05:43:50;66.97;;;26.40;;
62997;SDS011;55949;52.590;7.330;2023-03-02T05:44:51;78.70;;;28.75;;
62997;SDS011;55949;52.590;7.330;2023-03-02T05:45:51;68.28;;;25.85;;
62997;SDS011;55949;52.590;7.330;2023-03-02T05:46:59;64.10;;;25.70;;
62997;SDS011;55949;52.590;7.330;2023-03-02T05:48:00;61.25;;;23.63;;
62997;SDS011;55949;52.590;7.330;2023-03-02T05:49:01;70.95;;;25.40;;
62997;SDS011;55949;52.590;7.330;2023-03-02T05:50:01;64.70;;;23.88;;
62997;SDS011;55949;52.590;7.330;2023-03-02T05:51:03;70.38;;;26.33;;
62997;SDS011;55949;52.590;7.330;2023-03-02T05:52:04;67.97;;;25.90;;
62997;SDS011;55949;52.590;7.330;2023-03-02T05:53:04;72.30;;;26.27;;
62997;SDS011;55949;52.590;7.330;2023-03-02T05:54:05;61.28;;;25.05;;
62997;SDS011;55949;52.590;7.330;2023-03-02T05:55:06;70.30;;;24.15;;
62997;SDS011;55949;52.590;7.330;2023-03-02T05:56:07;73.72;;;27.20;;
62997;SDS011;55949;52.590;7.330;2023-03-02T05:57:08;79.05;;;28.55;;
62997;SDS011;55949;52.590;7.330;2023-03-02T05:58:15;70.88;;;24.00;;
62997;SDS011;55949;52.590;7.330;2023-03-02T05:59:17;66.68;;;23.45;;
62997;SDS011;55949;52.590;7.330;2023-03-02T06:00:17;68.50;;;26.85;;
62997;SDS011;55949;52.590;7.330;2023-03-02T06:01:19;66.00;;;24.70;;
62997;SDS011;55949;52.590;7.330;2023-03-02T06:02:19;71.45;;;26.65;;
62997;SDS011;55949;52.590;7.330;2023-03-02T06:03:20;68.65;;;25.25;;
62997;SDS011;55949;52.590;7.330;2023-03-02T06:04:21;76.38;;;25.77;;
62997;SDS011;55949;52.590;7.330;2023-03-02T06:05:22;69.93;;;26.67;;
62997;SDS011;55949;52.590;7.330;2023-03-02T06:06:23;67.00;;;25.58;;
62997;SDS011;55949;52.590;7.330;2023-03-02T06:07:24;70.05;;;26.05;;
62997;SDS011;55949;52.590;7.330;2023-03-02T06:08:26;63.08;;;24.38;;
62997;SDS011;55949;52.590;7.330;2023-03-02T06:09:26;80.65;;;29.08;;
62997;SDS011;55949;52.590;7.330;2023-03-02T06:10:27;78.32;;;27.60;;
62997;SDS011;55949;52.590;7.330;2023-03-02T06:11:28;75.00;;;27.77;;
62997;SDS011;55949;52.590;7.330;2023-03-02T06:12:29;74.03;;;28.15;;